Airport ID:K63S
Update Time (UTC):22/05/2024 12:25
Wind Speed (Knots):7
Wind Direction (Magnetic):100
Temperature (°C):7
Dew Point (°C):5
Humidity (%):88
Altimeter (inHg):29.67
Density Altitude (Feet):
Visibility (Miles):6
Clouds (Hundreds of feet):OVC035
Present Weather:BR
METAR:METAR K63S 221220Z AUTO 11009KT 6SM BR OVC036 07/05 A2967 RMK A01

The data displayed is for advisory purposes only and is not to be used for flight planning or operations.